Terminal Aerodrome Forecast
Issued by NWS

Home | Current Version | Previous Version | Text Only | Print | Product List | Glossary On
Versions: 1 2 3 4 5 6 7 8 9 10 11 12 13 14
000
FTUS46 KOTX 010525
TAFPUW
TAF
KPUW 010525Z 0106/0206 24006KT P6SM SKC
     FM012000 27006G12KT P6SM BKN050 OVC080 PROB30 0122/0202 -RA
     FM020300 20004KT P6SM SCT050 OVC080=

USA.gov is the U.S. government's official web portal to all federal, state and local government web resources and services.